Flight Track Log - Related Links

Times and Time Zones

All times are in EDT time to prevent confusion due to time zone crossing. See the N695GH flight status page for this flight to view local times or setup timezone preferences in your user account.

Time Position Orientation Groundspeed Altitude Reporting Facility
EDT Latitude Longitude Course Direction KTS MPH feet Rate Location/Type
Mon 06:50:01 PM 37.7500 -122.2333 134° Southeast 175 201 1,500  Level Northern Cal TRACON
Mon 06:50:55 PM 37.7667 -122.1667 72° East 207 238 2,300 526 Climbing Northern Cal TRACON
Mon 06:51:55 PM 37.7667 -122.0833 90° East 224 258 2,500 100 Climbing Northern Cal TRACON
Mon 06:52:55 PM 37.7667 -122.0167 90° East 227 261 2,500 450 Level Northern Cal TRACON
Mon 06:53:55 PM 37.7667 -121.9333 90° East 212 244 3,400 1,200 Climbing Northern Cal TRACON
Mon 06:54:55 PM 37.7333 -121.8833 130° Southeast 210 242 4,900 1,500 Climbing Northern Cal TRACON
Mon 06:55:00 PM 37.5910 -122.0498 134° Southeast  Level Estimated
Mon 06:55:55 PM 37.7000 -121.8167 122° Southeast 201 231 6,400  Level Northern Cal TRACON
Mon 06:56:49 PM 37.6667 -121.7833 142° Southeast 208 239 7,600 1,158 Climbing Northern Cal TRACON
Mon 06:57:49 PM 37.6167 -121.7333 142° Southeast 225 259 8,600 1,200 Climbing Northern Cal TRACON
Mon 06:58:49 PM 37.5667 -121.6667 133° Southeast 224 258 10,000 950 Climbing Northern Cal TRACON
Mon 06:59:49 PM 37.5333 -121.6167 130° Southeast 235 270 10,500 450 Climbing Northern Cal TRACON
Mon 07:00:49 PM 37.4833 -121.5500 133° Southeast 256 295 10,900 550 Climbing Northern Cal TRACON
Mon 07:01:49 PM 37.4167 -121.5000 149° Southeast 245 282 11,600 900 Climbing Northern Cal TRACON
Mon 07:02:49 PM 37.3833 -121.4333 122° Southeast 239 275 12,700 971 Climbing Northern Cal TRACON
Mon 07:03:34 PM 37.3669 -121.3881 114° Southeast 232 267 13,300 736 Climbing Oakland Center
Mon 07:04:35 PM 37.3267 -121.3203 127° Southeast 236 272 14,000 829 Climbing Oakland Center
Mon 07:05:37 PM 37.2792 -121.2375 126° Southeast 243 280 15,000 927 Climbing Oakland Center
Mon 07:06:38 PM 37.2394 -121.1689 126° Southeast 244 281 15,900 934 Climbing Oakland Center
Mon 07:07:39 PM 37.1900 -121.1108 137° Southeast 243 280 16,900 732 Climbing Oakland Center
Mon 07:08:41 PM 37.1383 -121.0553 139° Southeast 244 281 17,400 290 Climbing Oakland Center
Mon 07:09:43 PM 37.0833 -120.9833 134° Southeast 265 305 17,500 49 Climbing Northern Cal TRACON
Mon 07:10:43 PM 37.0167 -120.9333 149° Southeast 275 316 17,500  Level Northern Cal TRACON
Mon 07:11:43 PM 36.9667 -120.8667 133° Southeast 277 319 17,500  Level Northern Cal TRACON
Mon 07:12:43 PM 36.9167 -120.8000 133° Southeast 277 319 17,500 -48 Level Northern Cal TRACON
Mon 07:13:47 PM 36.8581 -120.7378 140° Southeast 276 318 17,400 -48 Descending Oakland Center
Mon 07:14:49 PM 36.7947 -120.6631 137° Southeast 288 331 17,400  Level Oakland Center
Mon 07:15:50 PM 36.7375 -120.6017 139° Southeast 278 320 17,400  Level Oakland Center
Mon 07:16:51 PM 36.6819 -120.5342 136° Southeast 293 337 17,400  Level Oakland Center
Mon 07:17:53 PM 36.6250 -120.4742 140° Southeast 280 322 17,400  Level Oakland Center
Mon 07:18:54 PM 36.5681 -120.4106 138° Southeast 277 319 17,400  Level Oakland Center
Mon 07:19:56 PM 36.5142 -120.3461 136° Southeast 269 310 17,400  Level Oakland Center
Mon 07:20:57 PM 36.4550 -120.2836 140° Southeast 274 315 17,400  Level Oakland Center
Mon 07:21:59 PM 36.3883 -120.2069 137° Southeast 273 314 17,400  Level Oakland Center
Mon 07:23:00 PM 36.3322 -120.1456 139° Southeast 270 311 17,400  Level Oakland Center
Mon 07:24:01 PM 36.2756 -120.0828 138° Southeast 272 313 17,400  Level Oakland Center
Mon 07:25:03 PM 36.2197 -120.0206 138° Southeast 271 312 17,400  Level Oakland Center
Mon 07:26:04 PM 36.1631 -119.9583 138° Southeast 271 312 17,400  Level Oakland Center
Mon 07:27:06 PM 36.1061 -119.8958 138° Southeast 273 314 17,400  Level Oakland Center
Mon 07:28:07 PM 36.0492 -119.8339 139° Southeast 273 314 17,400  Level Oakland Center
Mon 07:29:08 PM 35.9933 -119.7742 139° Southeast 267 307 17,400  Level Oakland Center
Mon 07:30:10 PM 35.9386 -119.7139 138° Southeast 264 304 17,400  Level Oakland Center
Mon 07:31:11 PM 35.8814 -119.6517 139° Southeast 269 310 17,400  Level Oakland Center
Mon 07:32:13 PM 35.8133 -119.5767 138° Southeast 271 312 17,400  Level Oakland Center
Mon 07:33:14 PM 35.7558 -119.5147 139° Southeast 273 314 17,400  Level Oakland Center
Mon 07:34:16 PM 35.6975 -119.4528 139° Southeast 274 315 17,400  Level Oakland Center
Mon 07:35:17 PM 35.6389 -119.3903 139° Southeast 276 318 17,400  Level Oakland Center
Mon 07:36:23 PM 35.5825 -119.3278 138° Southeast 277 319 17,400  Level Los Angeles Center
Mon 07:37:25 PM 35.5142 -119.2533 138° Southeast 274 315 17,400  Level Los Angeles Center
Mon 07:38:27 PM 35.4569 -119.1931 139° Southeast 272 313 17,400  Level Los Angeles Center
Mon 07:39:29 PM 35.4017 -119.1311 138° Southeast 270 311 17,400  Level Los Angeles Center
Mon 07:40:30 PM 35.3436 -119.0694 139° Southeast 273 314 17,400  Level Los Angeles Center
Mon 07:41:32 PM 35.2864 -119.0072 138° Southeast 275 316 17,400  Level Los Angeles Center
Mon 07:42:34 PM 35.2292 -118.9481 140° Southeast 271 312 17,400  Level Los Angeles Center
Mon 07:43:35 PM 35.1731 -118.8886 139° Southeast 269 310 17,400  Level Los Angeles Center
Mon 07:44:37 PM 35.1167 -118.8286 139° Southeast 268 308 17,400 48 Level Los Angeles Center
Mon 07:45:39 PM 35.0489 -118.7578 139° Southeast 267 307 17,500 48 Climbing Los Angeles Center
Mon 07:46:41 PM 34.9928 -118.6978 139° Southeast 269 310 17,500  Level Los Angeles Center
Mon 07:47:43 PM 34.9367 -118.6381 139° Southeast 269 310 17,500  Level Los Angeles Center
Mon 07:48:44 PM 34.8811 -118.5825 141° Southeast 269 310 17,500  Level Los Angeles Center
Mon 07:49:46 PM 34.8256 -118.5211 138° Southeast 269 310 17,500 -97 Level Los Angeles Center
Mon 07:50:48 PM 34.7628 -118.4556 139° Southeast 266 306 17,300 -532 Descending Los Angeles Center
Mon 07:51:50 PM 34.7042 -118.3933 139° Southeast 279 321 16,400 -919 Descending Los Angeles Center
Mon 07:52:52 PM 34.6372 -118.3233 139° Southeast 291 335 15,400 -1,024 Descending Los Angeles Center
Mon 07:53:53 PM 34.5767 -118.2608 140° Southeast 287 330 14,300 -1,024 Descending Los Angeles Center
Mon 07:54:55 PM 34.5178 -118.2000 140° Southeast 279 321 13,300 -1,016 Descending Los Angeles Center
Mon 07:55:57 PM 34.4539 -118.1328 139° Southeast 277 319 12,200 -968 Descending Los Angeles Center
Mon 07:56:59 PM 34.3961 -118.0731 140° Southeast 275 316 11,300 -1,016 Descending Los Angeles Center
Mon 07:58:01 PM 34.3319 -118.0056 139° Southeast 276 318 10,100 -823 Descending Los Angeles Center
Mon 07:59:03 PM 34.2769 -117.9508 141° Southeast 256 295 9,600 -677 Descending Los Angeles Center
Mon 08:00:05 PM 34.2219 -117.9028 144° Southeast 245 282 8,700 -919 Descending Los Angeles Center
Mon 08:01:07 PM 34.1681 -117.8558 144° Southeast 239 275 7,700 -1,113 Descending Los Angeles Center
Mon 08:02:09 PM 34.1142 -117.8081 144° Southeast 239 275 6,400 -1,471 Descending Los Angeles Center
Mon 08:02:49 PM 34.0667 -117.7667 144° Southeast 246 283 5,200 -1,800 Descending Southern California TRACON
Mon 08:03:49 PM 34.0167 -117.7167 140° Southeast 241 277 3,400 -1,550 Descending Southern California TRACON
Mon 08:04:49 PM 34.0000 -117.6500 107° East 219 252 2,100 -1,050 Descending Southern California TRACON
Mon 08:05:49 PM 33.9833 -117.6167 121° Southeast 155 178 1,300 -800 Descending Southern California TRACON
Mon 08:08:00 PM 33.9667 -117.6333 292° West  Level FlightAware Approximate
Mon 08:15:00 PM 33.9748 -117.6365 292° West  Level Estimated

Login

Don't have an account? Register now (free) for customized features, flight alerts, and more!